createdAt,value
2023-04-15T00:01:28.329Z,3.20
2023-04-15T00:03:56.156Z,2.10
2023-04-15T00:06:23.440Z,2.70
2023-04-15T00:08:51.065Z,2.20
2023-04-15T00:11:18.621Z,1.70
2023-04-15T00:13:45.975Z,2.80
2023-04-15T00:16:13.275Z,4.40
2023-04-15T00:18:40.402Z,1.70
2023-04-15T00:21:07.560Z,4.20
2023-04-15T00:23:34.490Z,2.20
2023-04-15T00:26:01.917Z,2.70
2023-04-15T00:28:28.993Z,3.10
2023-04-15T00:30:56.003Z,2.00
2023-04-15T00:33:22.996Z,1.20
2023-04-15T00:35:50.033Z,1.20
2023-04-15T00:38:16.950Z,1.90
2023-04-15T00:40:44.200Z,1.10
2023-04-15T00:43:11.270Z,1.00
2023-04-15T00:45:38.842Z,0.90
2023-04-15T00:48:06.371Z,1.50
2023-04-15T00:50:34.033Z,1.20
2023-04-15T00:53:01.481Z,1.30
2023-04-15T00:55:28.754Z,2.40
2023-04-15T00:57:57.982Z,4.70
2023-04-15T01:00:25.476Z,3.10
2023-04-15T01:02:52.733Z,10.70
2023-04-15T01:05:19.966Z,2.20
2023-04-15T01:07:48.954Z,2.60
2023-04-15T01:10:16.252Z,3.90
2023-04-15T01:12:43.657Z,4.10
2023-04-15T01:15:11.396Z,3.20
2023-04-15T01:17:39.624Z,9.90
2023-04-15T01:20:10.304Z,15.20
2023-04-15T01:22:37.379Z,14.10
2023-04-15T01:25:13.681Z,11.50
2023-04-15T01:27:42.671Z,5.60
2023-04-15T01:30:10.911Z,5.40
2023-04-15T01:32:38.506Z,3.90
2023-04-15T01:35:06.040Z,3.40
2023-04-15T01:37:33.466Z,3.60
2023-04-15T01:40:00.522Z,6.00
2023-04-15T01:42:28.200Z,7.10
2023-04-15T01:44:55.127Z,4.20
2023-04-15T01:47:22.164Z,3.00
2023-04-15T01:49:49.206Z,5.60
2023-04-15T01:52:16.059Z,4.90
2023-04-15T01:54:43.014Z,2.80
2023-04-15T01:57:10.341Z,1.80
2023-04-15T01:59:37.599Z,1.80
2023-04-15T02:02:05.928Z,4.30
2023-04-15T02:04:33.018Z,1.70
2023-04-15T02:07:00.287Z,2.00
2023-04-15T02:09:27.112Z,2.80
2023-04-15T02:11:54.685Z,1.80
2023-04-15T02:14:21.935Z,1.90
2023-04-15T02:16:48.808Z,2.50
2023-04-15T02:19:15.805Z,2.70
2023-04-15T02:21:42.655Z,2.20
2023-04-15T02:24:09.708Z,1.80
2023-04-15T02:26:36.523Z,2.00
2023-04-15T02:29:04.694Z,2.10
2023-04-15T02:31:34.387Z,1.50
2023-04-15T02:34:03.300Z,1.50
2023-04-15T02:36:32.014Z,1.40
2023-04-15T02:38:59.256Z,1.30
2023-04-15T02:41:28.660Z,1.30
2023-04-15T02:43:55.525Z,1.30
2023-04-15T02:46:23.329Z,1.50
2023-04-15T02:48:51.237Z,1.60
2023-04-15T02:51:20.598Z,2.40
2023-04-15T02:53:48.893Z,2.70
2023-04-15T02:56:17.557Z,4.50
2023-04-15T02:58:45.527Z,4.10
2023-04-15T03:01:12.478Z,3.50
2023-04-15T03:03:39.371Z,3.90
2023-04-15T03:06:07.268Z,7.00
2023-04-15T03:08:34.229Z,6.30
2023-04-15T03:11:02.906Z,5.00
2023-04-15T03:13:29.730Z,8.30
2023-04-15T03:15:56.638Z,9.10
2023-04-15T03:18:23.972Z,5.40
2023-04-15T03:20:50.977Z,5.70
2023-04-15T03:23:18.022Z,6.80
2023-04-15T03:25:45.581Z,5.70
2023-04-15T03:28:12.731Z,5.60
2023-04-15T03:30:39.668Z,6.20
2023-04-15T03:33:06.502Z,9.60
2023-04-15T03:35:33.348Z,7.30
2023-04-15T03:38:00.189Z,5.80
2023-04-15T03:40:27.457Z,5.90
2023-04-15T03:42:54.388Z,6.20
2023-04-15T03:45:21.524Z,6.80
2023-04-15T03:47:48.392Z,7.00
2023-04-15T03:50:15.952Z,8.90
2023-04-15T03:52:42.781Z,7.90
2023-04-15T03:55:10.216Z,10.80
2023-04-15T03:57:39.465Z,7.50
2023-04-15T04:00:12.257Z,7.10
2023-04-15T04:02:39.372Z,9.50
2023-04-15T04:05:06.700Z,7.60
2023-04-15T04:07:33.763Z,7.80
2023-04-15T04:10:00.690Z,8.10
2023-04-15T04:12:27.630Z,11.20
2023-04-15T04:14:54.558Z,16.30
2023-04-15T04:17:21.442Z,22.80
2023-04-15T04:19:48.348Z,26.20
2023-04-15T04:22:15.194Z,16.90
2023-04-15T04:24:42.149Z,15.50
2023-04-15T04:27:09.078Z,19.70
2023-04-15T04:29:36.419Z,18.80
2023-04-15T04:32:03.331Z,24.20
2023-04-15T04:34:30.518Z,20.60
2023-04-15T04:36:57.362Z,15.90
2023-04-15T04:39:24.295Z,14.50
2023-04-15T04:41:52.740Z,14.40
2023-04-15T04:44:19.612Z,13.50
2023-04-15T04:46:46.566Z,28.10
2023-04-15T04:49:13.367Z,9.50
2023-04-15T04:51:40.246Z,9.30
2023-04-15T04:54:07.499Z,16.10
2023-04-15T04:56:35.052Z,15.90
2023-04-15T04:59:02.368Z,20.90
2023-04-15T05:01:29.641Z,22.80
2023-04-15T05:03:56.821Z,22.60
2023-04-15T05:06:23.949Z,20.90
2023-04-15T05:08:50.909Z,14.40
2023-04-15T05:11:18.030Z,12.30
2023-04-15T05:13:45.314Z,11.30
2023-04-15T05:16:12.819Z,23.60
2023-04-15T05:18:41.275Z,22.80
2023-04-15T05:21:08.585Z,20.40
2023-04-15T05:23:35.828Z,14.40
2023-04-15T05:26:02.989Z,14.10
2023-04-15T05:28:30.229Z,15.30
2023-04-15T05:30:57.612Z,14.20
2023-04-15T05:33:24.756Z,15.40
2023-04-15T05:35:52.175Z,13.30
2023-04-15T05:38:19.543Z,12.80
2023-04-15T05:40:46.985Z,15.20
2023-04-15T05:43:13.934Z,12.40
2023-04-15T05:45:40.770Z,9.50
2023-04-15T05:48:08.019Z,9.20
2023-04-15T05:50:34.976Z,11.10
2023-04-15T05:53:02.775Z,10.10
2023-04-15T05:55:29.772Z,7.30
2023-04-15T05:57:56.919Z,6.90
2023-04-15T06:00:23.750Z,7.10
2023-04-15T06:02:51.062Z,7.70
2023-04-15T06:05:18.573Z,7.00
2023-04-15T06:07:47.330Z,7.50
2023-04-15T06:10:15.832Z,7.60
2023-04-15T06:12:42.657Z,6.90
2023-04-15T06:15:13.194Z,6.80
2023-04-15T06:17:40.332Z,6.40
2023-04-15T06:20:08.950Z,8.00
2023-04-15T06:22:38.546Z,6.80
2023-04-15T06:25:08.406Z,5.90
2023-04-15T06:27:35.280Z,5.80
2023-04-15T06:30:02.231Z,4.80
2023-04-15T06:32:29.210Z,5.00
2023-04-15T06:34:57.029Z,4.70
2023-04-15T06:37:26.382Z,5.30
2023-04-15T06:39:55.225Z,5.20
2023-04-15T06:42:24.201Z,4.60
2023-04-15T06:44:51.508Z,4.60
2023-04-15T06:47:18.652Z,2.00
2023-04-15T06:49:45.746Z,2.20
2023-04-15T06:52:13.408Z,1.10
2023-04-15T06:54:41.822Z,1.30
2023-04-15T06:57:12.321Z,1.80
2023-04-15T06:59:42.120Z,1.40
2023-04-15T07:02:12.810Z,1.60
2023-04-15T07:04:40.956Z,1.60
2023-04-15T07:07:08.407Z,1.80
2023-04-15T07:09:35.645Z,1.50
2023-04-15T07:12:02.676Z,0.80
2023-04-15T07:14:30.041Z,1.50
2023-04-15T07:16:58.052Z,1.70
2023-04-15T07:19:25.027Z,11.30
2023-04-15T07:21:52.021Z,1.90
2023-04-15T07:24:20.459Z,1.80
2023-04-15T07:26:47.599Z,0.90
2023-04-15T07:29:14.886Z,0.90
2023-04-15T07:31:42.611Z,0.70
2023-04-15T07:34:09.568Z,1.00
2023-04-15T07:36:37.288Z,0.60
2023-04-15T07:39:05.013Z,0.60
2023-04-15T07:41:32.327Z,0.60
2023-04-15T07:43:59.910Z,0.50
2023-04-15T07:46:27.817Z,0.60
2023-04-15T07:48:54.798Z,0.70
2023-04-15T07:51:21.945Z,0.40
2023-04-15T07:53:50.816Z,0.40
2023-04-15T07:56:18.412Z,0.50
2023-04-15T07:58:45.338Z,0.60
2023-04-15T08:01:12.988Z,0.60
2023-04-15T08:03:40.147Z,0.50
2023-04-15T08:06:07.399Z,0.50
2023-04-15T08:08:34.441Z,0.90
2023-04-15T08:11:01.693Z,0.60
2023-04-15T08:13:29.170Z,1.20
2023-04-15T08:16:19.172Z,0.70
2023-04-15T08:18:50.087Z,0.80
2023-04-15T08:21:19.010Z,0.90
2023-04-15T08:23:47.936Z,1.30
2023-04-15T08:26:14.886Z,1.20
2023-04-15T08:28:43.193Z,1.00
2023-04-15T08:31:10.865Z,1.10
2023-04-15T08:33:37.892Z,1.20
2023-04-15T08:36:06.337Z,1.30
2023-04-15T08:38:33.807Z,1.40
2023-04-15T08:41:07.736Z,0.90
2023-04-15T08:43:37.148Z,1.10
2023-04-15T08:46:05.831Z,1.40
2023-04-15T08:48:39.501Z,1.50
2023-04-15T08:51:08.071Z,0.90
2023-04-15T08:53:35.836Z,1.30
2023-04-15T08:56:06.186Z,1.20
2023-04-15T08:58:34.048Z,1.20
2023-04-15T09:01:02.116Z,1.30
2023-04-15T09:03:29.519Z,1.40
2023-04-15T09:05:57.820Z,1.30
2023-04-15T09:08:25.117Z,1.30
2023-04-15T09:10:52.513Z,1.20
2023-04-15T09:13:19.688Z,0.90
2023-04-15T09:15:47.025Z,1.00
2023-04-15T09:18:27.091Z,1.20
2023-04-15T09:20:54.312Z,1.20
2023-04-15T09:23:21.492Z,0.90
2023-04-15T09:25:49.977Z,1.20
2023-04-15T09:28:26.026Z,1.20
2023-04-15T09:30:58.026Z,1.40
2023-04-15T09:33:27.461Z,1.30
2023-04-15T09:36:05.853Z,1.50
2023-04-15T09:38:34.244Z,1.90
2023-04-15T09:41:01.532Z,2.00
2023-04-15T09:43:42.171Z,1.70
2023-04-15T09:48:37.206Z,1.50
2023-04-15T09:51:04.532Z,1.50
2023-04-15T09:53:34.501Z,1.10
2023-04-15T09:56:02.854Z,1.30
2023-04-15T09:58:32.057Z,1.60
2023-04-15T10:01:00.730Z,1.60
2023-04-15T10:03:34.828Z,1.40
2023-04-15T10:06:05.878Z,1.50
2023-04-15T10:08:35.180Z,1.60
2023-04-15T10:11:02.803Z,1.60
2023-04-15T10:13:35.812Z,1.50
2023-04-15T10:16:15.977Z,1.90
2023-04-15T10:18:48.544Z,1.70
2023-04-15T10:21:18.996Z,2.10
2023-04-15T10:23:47.955Z,1.90
2023-04-15T10:26:17.792Z,3.50
2023-04-15T10:28:47.577Z,1.70
2023-04-15T10:31:16.237Z,2.40
2023-04-15T10:33:46.288Z,1.40
2023-04-15T10:36:14.451Z,2.50
2023-04-15T10:38:46.965Z,1.80
2023-04-15T10:41:14.953Z,1.50
2023-04-15T10:43:51.807Z,1.60
2023-04-15T10:46:44.508Z,2.00
2023-04-15T10:49:17.365Z,1.80
2023-04-15T10:51:53.684Z,2.40
2023-04-15T10:54:27.059Z,1.50
2023-04-15T10:57:09.220Z,2.90
2023-04-15T11:00:05.498Z,1.60
2023-04-15T11:02:49.241Z,2.00
2023-04-15T11:05:18.405Z,1.70
2023-04-15T11:07:47.130Z,2.10
2023-04-15T11:10:14.007Z,1.50
2023-04-15T11:12:42.288Z,2.00
2023-04-15T11:15:35.216Z,1.80
2023-04-15T11:18:25.534Z,1.40
2023-04-15T11:21:00.758Z,1.70
2023-04-15T11:23:29.362Z,2.00
2023-04-15T11:25:58.251Z,2.40
2023-04-15T11:28:30.191Z,1.70
2023-04-15T11:30:58.253Z,1.70
2023-04-15T11:33:26.332Z,2.60
2023-04-15T11:35:55.393Z,2.20
2023-04-15T11:38:22.876Z,2.00
2023-04-15T11:40:52.080Z,1.80
2023-04-15T11:43:23.924Z,2.00
2023-04-15T11:45:53.911Z,3.00
2023-04-15T11:48:29.282Z,2.10
2023-04-15T11:50:58.250Z,3.60
2023-04-15T11:53:36.083Z,3.00
2023-04-15T11:56:03.138Z,2.10
2023-04-15T11:58:30.560Z,2.40
2023-04-15T12:01:00.420Z,1.90
2023-04-15T12:03:32.457Z,1.90
2023-04-15T12:06:19.531Z,1.70
2023-04-15T12:08:55.952Z,1.60
2023-04-15T12:11:32.619Z,1.50
2023-04-15T12:14:08.639Z,2.60
2023-04-15T12:16:49.121Z,1.50
2023-04-15T12:19:23.242Z,1.60
2023-04-15T12:21:51.246Z,1.80
2023-04-15T12:24:22.555Z,1.80
2023-04-15T12:26:55.328Z,2.00
2023-04-15T12:29:27.092Z,1.70
2023-04-15T12:31:56.287Z,1.90
2023-04-15T12:34:29.725Z,1.50
2023-04-15T12:36:58.233Z,1.40
2023-04-15T12:39:30.932Z,1.30
2023-04-15T12:41:59.098Z,1.40
2023-04-15T12:44:27.539Z,1.40
2023-04-15T12:46:55.170Z,1.40
2023-04-15T12:49:23.450Z,2.50
2023-04-15T12:51:53.211Z,1.70
2023-04-15T12:54:21.088Z,1.60
2023-04-15T12:56:50.163Z,1.40
2023-04-15T12:59:21.507Z,1.30
2023-04-15T13:01:49.330Z,1.50
2023-04-15T13:04:17.598Z,1.10
2023-04-15T13:06:44.814Z,1.60
2023-04-15T13:09:11.873Z,1.40
2023-04-15T13:11:38.923Z,1.50
2023-04-15T13:14:07.934Z,1.40
2023-04-15T13:16:35.382Z,1.70
2023-04-15T13:19:04.526Z,5.30
2023-04-15T13:21:35.992Z,2.60
2023-04-15T13:24:05.259Z,1.80
2023-04-15T13:26:32.556Z,2.10
2023-04-15T13:29:00.171Z,1.60
2023-04-15T13:31:27.688Z,3.90
2023-04-15T13:33:55.239Z,2.10
2023-04-15T13:36:22.375Z,2.00
2023-04-15T13:38:51.173Z,2.00
2023-04-15T13:41:18.994Z,2.40
2023-04-15T13:43:45.931Z,2.00
2023-04-15T13:46:13.176Z,1.90
2023-04-15T13:48:40.547Z,2.40
2023-04-15T13:51:07.719Z,1.80
2023-04-15T13:53:38.877Z,2.40
2023-04-15T13:56:09.474Z,1.70
2023-04-15T13:58:38.035Z,2.30
2023-04-15T14:01:07.291Z,1.90
2023-04-15T14:03:38.301Z,2.00
2023-04-15T14:06:06.683Z,2.00
2023-04-15T14:08:34.301Z,2.10
2023-04-15T14:11:01.557Z,1.90
2023-04-15T14:13:28.510Z,1.50
2023-04-15T14:15:57.108Z,2.40
2023-04-15T14:18:24.230Z,3.30
2023-04-15T14:20:51.163Z,3.60
2023-04-15T14:23:18.356Z,1.40
2023-04-15T14:25:53.040Z,1.40
2023-04-15T14:28:20.372Z,1.40
2023-04-15T14:30:47.665Z,2.10
2023-04-15T14:33:14.580Z,2.00
2023-04-15T14:35:42.286Z,1.80
2023-04-15T14:38:11.645Z,2.10
2023-04-15T14:40:39.356Z,2.50
2023-04-15T14:43:06.623Z,2.90
2023-04-15T14:45:33.638Z,2.60
2023-04-15T14:48:00.871Z,2.20
2023-04-15T14:50:28.507Z,2.60
2023-04-15T14:52:56.450Z,2.60
2023-04-15T14:55:23.756Z,3.40
2023-04-15T14:57:51.646Z,2.20
2023-04-15T15:00:19.808Z,2.10
2023-04-15T15:02:50.404Z,2.10
2023-04-15T15:05:18.482Z,2.00
2023-04-15T15:07:45.773Z,2.00
2023-04-15T15:10:12.967Z,2.10
2023-04-15T15:12:40.336Z,2.20
2023-04-15T15:15:19.329Z,2.30
2023-04-15T15:17:55.942Z,2.30
2023-04-15T15:20:24.792Z,2.40
2023-04-15T15:22:52.455Z,2.40
2023-04-15T15:25:19.851Z,3.10
2023-04-15T15:27:47.570Z,2.70
2023-04-15T15:30:14.738Z,2.90
2023-04-15T15:32:43.080Z,2.40
2023-04-15T15:35:11.629Z,3.30
2023-04-15T15:37:38.843Z,2.10
2023-04-15T15:40:07.100Z,2.60
2023-04-15T15:42:34.824Z,2.80
2023-04-15T15:45:04.483Z,2.80
2023-04-15T15:47:31.554Z,3.10
2023-04-15T15:49:58.778Z,3.80
2023-04-15T15:52:26.012Z,5.30
2023-04-15T15:54:53.268Z,3.70
2023-04-15T15:57:20.404Z,10.00
2023-04-15T15:59:47.767Z,6.50
2023-04-15T16:02:15.097Z,6.00
2023-04-15T16:04:43.571Z,8.60
2023-04-15T16:07:15.951Z,5.90
2023-04-15T16:09:44.034Z,7.60
2023-04-15T16:12:11.176Z,5.20
2023-04-15T16:14:38.313Z,4.50
2023-04-15T16:17:05.051Z,3.90
2023-04-15T16:19:31.944Z,4.80
2023-04-15T16:22:01.571Z,4.70
2023-04-15T16:24:29.613Z,5.20
2023-04-15T16:26:59.821Z,5.60
2023-04-15T16:29:27.048Z,7.00
2023-04-15T16:31:56.204Z,11.40
2023-04-15T16:34:23.856Z,11.30
2023-04-15T16:36:51.243Z,9.90
2023-04-15T16:39:18.405Z,13.20
2023-04-15T16:41:46.164Z,5.60
2023-04-15T16:44:13.400Z,4.40
2023-04-15T16:46:41.121Z,5.20
2023-04-15T16:49:08.560Z,6.00
2023-04-15T16:51:35.878Z,4.40
2023-04-15T16:54:03.271Z,4.00
2023-04-15T16:56:30.272Z,4.00
2023-04-15T16:58:57.413Z,3.00
2023-04-15T17:01:24.688Z,2.60
2023-04-15T17:03:54.030Z,3.00
2023-04-15T17:06:23.394Z,3.50
2023-04-15T17:08:50.755Z,4.30
2023-04-15T17:11:17.754Z,4.70
2023-04-15T17:13:44.807Z,5.30
2023-04-15T17:16:12.109Z,6.70
2023-04-15T17:18:39.233Z,7.20
2023-04-15T17:21:06.453Z,4.70
2023-04-15T17:23:33.369Z,5.30
2023-04-15T17:26:00.265Z,5.70
2023-04-15T17:28:27.996Z,5.00
2023-04-15T17:30:55.415Z,6.40
2023-04-15T17:33:55.708Z,6.90
2023-04-15T17:36:09.628Z,7.30
2023-04-15T17:38:36.483Z,7.00
2023-04-15T17:41:03.909Z,9.80
2023-04-15T17:43:32.389Z,18.60
2023-04-15T17:45:59.528Z,19.10
2023-04-15T17:48:26.907Z,16.10
2023-04-15T17:50:53.896Z,14.70
2023-04-15T17:53:20.874Z,14.60
2023-04-15T17:55:47.935Z,12.90
2023-04-15T17:58:14.866Z,9.20
2023-04-15T18:00:42.048Z,15.00
2023-04-15T18:03:09.217Z,16.10
2023-04-15T18:05:36.315Z,13.10
2023-04-15T18:08:03.456Z,11.90
2023-04-15T18:10:30.397Z,12.40
2023-04-15T18:12:57.647Z,15.20
2023-04-15T18:15:24.798Z,11.70
2023-04-15T18:17:52.049Z,10.70
2023-04-15T18:20:19.394Z,10.40
2023-04-15T18:22:46.705Z,9.60
2023-04-15T18:25:13.897Z,8.50
2023-04-15T18:27:41.077Z,10.30
2023-04-15T18:30:10.316Z,11.80
2023-04-15T18:32:38.077Z,8.30
2023-04-15T18:35:06.577Z,7.20
2023-04-15T18:37:33.778Z,8.00
2023-04-15T18:40:01.581Z,9.40
2023-04-15T18:42:28.642Z,6.10
2023-04-15T18:44:55.686Z,6.00
2023-04-15T18:47:23.831Z,6.60
2023-04-15T18:49:52.540Z,6.40
2023-04-15T18:52:19.616Z,6.70
2023-04-15T18:54:46.853Z,7.50
2023-04-15T18:57:14.095Z,7.10
2023-04-15T18:59:47.523Z,8.60
2023-04-15T19:02:14.688Z,8.70
2023-04-15T19:04:41.818Z,9.30
2023-04-15T19:07:10.055Z,9.30
2023-04-15T19:09:37.411Z,10.90
2023-04-15T19:12:04.462Z,17.80
2023-04-15T19:14:31.614Z,19.20
2023-04-15T19:16:59.084Z,21.70
2023-04-15T19:19:26.825Z,18.60
2023-04-15T19:21:54.606Z,83.60
2023-04-15T19:24:22.064Z,17.50
2023-04-15T19:26:51.540Z,71.80
2023-04-15T19:29:18.842Z,55.10
2023-04-15T19:31:46.006Z,16.20
2023-04-15T19:34:13.533Z,86.10
2023-04-15T19:36:41.321Z,57.40
2023-04-15T19:39:09.230Z,28.00
2023-04-15T19:41:36.563Z,41.80
2023-04-15T19:44:05.073Z,19.70
2023-04-15T19:46:32.678Z,61.70
2023-04-15T19:49:00.261Z,48.30
2023-04-15T19:51:28.722Z,25.30
2023-04-15T19:53:57.031Z,11.20
2023-04-15T19:56:24.643Z,13.40
2023-04-15T19:58:53.156Z,13.50
2023-04-15T20:01:21.015Z,13.30
2023-04-15T20:03:48.455Z,51.80
2023-04-15T20:06:16.275Z,42.50
2023-04-15T20:08:43.287Z,15.90
2023-04-15T20:11:10.599Z,16.20
2023-04-15T20:13:37.593Z,13.00
2023-04-15T20:16:08.006Z,10.80
2023-04-15T20:18:35.079Z,9.60
2023-04-15T20:21:02.111Z,10.30
2023-04-15T20:23:29.140Z,12.20
2023-04-15T20:25:56.402Z,11.90
2023-04-15T20:28:26.332Z,12.30
2023-04-15T20:30:54.016Z,11.70
2023-04-15T20:33:22.632Z,22.70
2023-04-15T20:35:49.569Z,17.60
2023-04-15T20:38:16.838Z,100.90
2023-04-15T20:40:43.917Z,147.90
2023-04-15T20:43:10.765Z,29.40
2023-04-15T20:45:39.255Z,23.00
2023-04-15T20:48:06.698Z,18.10
2023-04-15T20:50:33.627Z,31.20
2023-04-15T20:53:00.719Z,24.00
2023-04-15T20:55:28.992Z,24.30
2023-04-15T20:57:59.174Z,19.50
2023-04-15T21:00:26.359Z,13.30
2023-04-15T21:02:53.418Z,14.90
2023-04-15T21:05:20.444Z,11.90
2023-04-15T21:07:47.346Z,13.50
2023-04-15T21:10:14.211Z,20.10
2023-04-15T21:12:41.446Z,14.60
2023-04-15T21:15:09.367Z,13.70
2023-04-15T21:17:36.220Z,13.20
2023-04-15T21:20:03.641Z,13.00
2023-04-15T21:22:30.465Z,12.90
2023-04-15T21:24:57.654Z,14.90
2023-04-15T21:27:26.316Z,17.40
2023-04-15T21:29:53.167Z,17.30
2023-04-15T21:32:20.001Z,15.60
2023-04-15T21:34:46.972Z,14.80
2023-04-15T21:37:13.773Z,13.20
2023-04-15T21:39:40.884Z,14.50
2023-04-15T21:42:07.847Z,13.20
2023-04-15T21:44:34.752Z,14.80
2023-04-15T21:47:02.322Z,29.70
2023-04-15T21:49:29.618Z,16.40
2023-04-15T21:52:01.331Z,15.20
2023-04-15T21:54:28.716Z,16.00
2023-04-15T21:56:55.524Z,16.20
2023-04-15T21:59:22.267Z,16.30
2023-04-15T22:01:49.305Z,20.20
2023-04-15T22:04:16.699Z,16.70
2023-04-15T22:06:43.671Z,40.00
2023-04-15T22:09:16.414Z,20.60
2023-04-15T22:11:43.624Z,18.20
2023-04-15T22:14:10.951Z,19.20
2023-04-15T22:16:38.274Z,18.90
2023-04-15T22:19:05.918Z,21.80
2023-04-15T22:21:32.958Z,20.60
2023-04-15T22:24:33.924Z,19.60
2023-04-15T22:26:46.960Z,20.40
2023-04-15T22:29:13.798Z,18.10
2023-04-15T22:31:40.976Z,40.20
2023-04-15T22:34:08.783Z,35.20
2023-04-15T22:36:35.761Z,26.80
2023-04-15T22:39:03.560Z,23.00
2023-04-15T22:41:31.480Z,22.00
2023-04-15T22:43:59.044Z,18.90
2023-04-15T22:46:26.457Z,22.30
2023-04-15T22:48:54.805Z,25.50
2023-04-15T22:51:24.236Z,18.60
2023-04-15T22:53:51.910Z,15.80
2023-04-15T22:56:21.263Z,15.00
2023-04-15T22:58:49.399Z,14.30
2023-04-15T23:01:18.307Z,14.50
2023-04-15T23:03:56.719Z,19.10
2023-04-15T23:06:30.112Z,18.60
2023-04-15T23:08:57.582Z,17.40
2023-04-15T23:11:25.195Z,15.60
2023-04-15T23:13:54.409Z,15.30
2023-04-15T23:16:24.708Z,16.20
2023-04-15T23:18:51.680Z,14.80
2023-04-15T23:21:18.517Z,16.80
2023-04-15T23:23:45.663Z,18.60
2023-04-15T23:26:12.600Z,20.90
2023-04-15T23:28:39.462Z,16.70
2023-04-15T23:31:07.243Z,18.30
2023-04-15T23:33:34.294Z,18.00
2023-04-15T23:36:01.608Z,16.10
2023-04-15T23:38:28.460Z,16.20
2023-04-15T23:40:55.608Z,23.00
2023-04-15T23:43:22.785Z,25.20
2023-04-15T23:45:50.129Z,22.60
2023-04-15T23:48:17.240Z,24.00
2023-04-15T23:50:44.204Z,26.60
2023-04-15T23:53:11.334Z,27.20
2023-04-15T23:55:38.275Z,28.40
2023-04-15T23:58:05.114Z,33.80
